createdAt,value
2023-03-21T00:01:59.484Z,69.98
2023-03-21T00:04:33.206Z,70.15
2023-03-21T00:07:06.167Z,70.06
2023-03-21T00:09:33.991Z,70.23
2023-03-21T00:12:02.937Z,70.17
2023-03-21T00:14:31.335Z,70.08
2023-03-21T00:16:59.532Z,69.79
2023-03-21T00:19:29.422Z,70.08
2023-03-21T00:22:07.492Z,70.15
2023-03-21T00:24:36.788Z,70.17
2023-03-21T00:27:30.289Z,70.28
2023-03-21T00:29:56.754Z,70.26
2023-03-21T00:32:27.064Z,70.05
2023-03-21T00:35:11.742Z,70.00
2023-03-21T00:37:45.703Z,70.17
2023-03-21T00:40:25.740Z,70.19
2023-03-21T00:42:57.413Z,70.11
2023-03-21T00:45:25.493Z,70.10
2023-03-21T00:47:55.816Z,70.06
2023-03-21T00:50:24.198Z,70.11
2023-03-21T00:52:52.372Z,69.97
2023-03-21T00:55:23.214Z,69.90
2023-03-21T00:58:01.130Z,69.85
2023-03-21T01:00:30.981Z,70.01
2023-03-21T01:03:17.398Z,70.26
2023-03-21T01:06:07.387Z,70.35
2023-03-21T01:08:51.716Z,70.45
2023-03-21T01:11:28.400Z,70.25
2023-03-21T01:14:07.666Z,70.31
2023-03-21T01:16:43.672Z,70.39
2023-03-21T01:19:23.944Z,70.24
2023-03-21T01:21:54.217Z,70.38
2023-03-21T01:24:22.271Z,70.64
2023-03-21T01:26:50.570Z,70.58
2023-03-21T01:29:18.629Z,70.29
2023-03-21T01:31:49.241Z,70.36
2023-03-21T01:34:17.665Z,70.41
2023-03-21T01:37:06.476Z,70.43
2023-03-21T01:39:41.559Z,70.61
2023-03-21T01:42:13.203Z,70.58
2023-03-21T01:45:01.769Z,70.47
2023-03-21T01:47:47.129Z,70.81
2023-03-21T01:50:23.929Z,70.95
2023-03-21T01:53:00.774Z,70.92
2023-03-21T01:55:31.384Z,70.94
2023-03-21T01:58:07.085Z,70.90
2023-03-21T02:01:01.589Z,70.88
2023-03-21T02:03:38.760Z,70.97
2023-03-21T02:06:53.268Z,71.07
2023-03-21T02:09:46.777Z,71.28
2023-03-21T02:12:25.821Z,71.23
2023-03-21T02:14:57.430Z,71.35
2023-03-21T02:18:23.501Z,71.49
2023-03-21T02:21:23.831Z,71.86
2023-03-21T02:24:28.967Z,72.00
2023-03-21T02:27:04.248Z,72.19
2023-03-21T02:29:41.604Z,72.00
2023-03-21T02:32:25.403Z,72.10
2023-03-21T02:35:24.845Z,71.91
2023-03-21T02:38:15.655Z,71.91
2023-03-21T02:40:49.128Z,72.27
2023-03-21T02:43:39.452Z,72.16
2023-03-21T02:46:11.058Z,72.17
2023-03-21T02:48:50.687Z,72.40
2023-03-21T02:51:21.763Z,72.20
2023-03-21T02:54:20.053Z,72.11
2023-03-21T02:56:43.222Z,72.39
2023-03-21T02:59:11.506Z,72.30
2023-03-21T03:01:39.701Z,72.42
2023-03-21T03:04:19.184Z,72.49
2023-03-21T03:07:14.524Z,72.77
2023-03-21T03:10:10.745Z,72.97
2023-03-21T03:12:55.582Z,73.05
2023-03-21T03:15:38.866Z,73.07
2023-03-21T03:18:35.522Z,73.19
2023-03-21T03:21:14.515Z,73.32
2023-03-21T03:23:50.713Z,73.71
2023-03-21T03:26:27.286Z,73.71
2023-03-21T03:29:02.044Z,73.77
2023-03-21T03:31:33.285Z,73.83
2023-03-21T03:34:07.164Z,73.96
2023-03-21T03:36:41.987Z,73.96
2023-03-21T03:39:13.967Z,74.28
2023-03-21T03:44:38.528Z,74.19
2023-03-21T03:47:15.205Z,74.49
2023-03-21T03:49:54.373Z,74.74
2023-03-21T03:52:55.594Z,74.27
2023-03-21T03:55:36.495Z,74.57
2023-03-21T03:58:21.369Z,74.56
2023-03-21T04:00:52.351Z,74.59
2023-03-21T04:03:24.205Z,74.86
2023-03-21T04:05:56.608Z,74.67
2023-03-21T04:08:26.955Z,74.98
2023-03-21T04:10:56.670Z,74.76
2023-03-21T04:13:25.963Z,74.75
2023-03-21T04:16:03.809Z,74.86
2023-03-21T04:18:32.393Z,74.63
2023-03-21T04:21:01.385Z,74.47
2023-03-21T04:23:32.490Z,74.22
2023-03-21T04:26:00.708Z,74.01
2023-03-21T04:28:41.677Z,74.07
2023-03-21T04:31:27.389Z,74.29
2023-03-21T04:34:09.825Z,74.35
2023-03-21T04:36:46.807Z,74.62
2023-03-21T04:39:17.364Z,74.71
2023-03-21T04:41:48.553Z,74.75
2023-03-21T04:44:21.004Z,74.69
2023-03-21T04:46:50.694Z,74.53
2023-03-21T04:49:19.777Z,74.57
2023-03-21T04:51:49.012Z,74.41
2023-03-21T04:54:21.173Z,74.50
2023-03-21T04:56:57.074Z,74.40
2023-03-21T04:59:28.491Z,74.23
2023-03-21T05:01:58.805Z,74.15
2023-03-21T05:04:27.822Z,73.67
2023-03-21T05:06:57.219Z,73.50
2023-03-21T05:09:25.746Z,73.54
2023-03-21T05:11:53.888Z,73.31
2023-03-21T05:14:24.057Z,73.40
2023-03-21T05:16:56.457Z,72.93
2023-03-21T05:19:35.090Z,72.91
2023-03-21T05:22:05.436Z,72.73
2023-03-21T05:24:37.636Z,72.40
2023-03-21T05:27:06.647Z,72.18
2023-03-21T05:29:42.574Z,72.08
2023-03-21T05:32:11.729Z,71.91
2023-03-21T05:34:40.782Z,72.20
2023-03-21T05:37:16.189Z,70.58
2023-03-21T05:39:48.249Z,68.39
2023-03-21T05:42:29.616Z,66.81
2023-03-21T05:44:59.809Z,64.94
2023-03-21T05:47:32.686Z,63.69
2023-03-21T05:50:01.462Z,62.28
2023-03-21T05:52:33.042Z,61.31
2023-03-21T05:55:03.751Z,59.69
2023-03-21T05:57:35.311Z,58.34
2023-03-21T06:00:07.386Z,58.32
2023-03-21T06:02:45.887Z,56.66
2023-03-21T06:05:37.174Z,56.17
2023-03-21T06:08:07.040Z,55.01
2023-03-21T06:10:36.406Z,53.67
2023-03-21T06:13:05.359Z,52.74
2023-03-21T06:15:38.236Z,51.92
2023-03-21T06:18:13.259Z,51.93
2023-03-21T06:20:44.307Z,50.77
2023-03-21T06:23:12.777Z,51.56
2023-03-21T06:25:41.260Z,50.34
2023-03-21T06:28:10.081Z,49.17
2023-03-21T06:30:41.837Z,48.00
2023-03-21T06:33:18.087Z,48.69
2023-03-21T06:35:54.082Z,49.28
2023-03-21T06:38:22.917Z,48.86
2023-03-21T06:40:51.300Z,48.85
2023-03-21T06:43:23.432Z,48.90
2023-03-21T06:45:52.099Z,48.88
2023-03-21T06:48:22.621Z,48.88
2023-03-21T06:50:55.332Z,48.49
2023-03-21T06:53:27.585Z,47.90
2023-03-21T06:56:29.702Z,46.79
2023-03-21T06:58:58.152Z,46.70
2023-03-21T07:01:49.716Z,46.07
2023-03-21T07:04:20.341Z,44.87
2023-03-21T07:06:48.544Z,43.63
2023-03-21T07:09:24.659Z,42.13
2023-03-21T07:11:54.663Z,40.80
2023-03-21T07:14:26.026Z,40.05
2023-03-21T07:16:57.029Z,39.45
2023-03-21T07:19:26.437Z,38.63
2023-03-21T07:21:54.679Z,38.23
2023-03-21T07:24:25.090Z,37.75
2023-03-21T07:26:54.720Z,37.38
2023-03-21T07:29:23.414Z,36.78
2023-03-21T07:31:54.514Z,36.01
2023-03-21T07:34:24.091Z,35.93
2023-03-21T07:36:52.245Z,35.90
2023-03-21T07:39:23.365Z,35.09
2023-03-21T07:41:55.786Z,34.58
2023-03-21T07:44:33.666Z,34.11
2023-03-21T07:47:06.421Z,33.54
2023-03-21T07:49:34.869Z,33.35
2023-03-21T07:52:08.235Z,33.13
2023-03-21T07:54:40.381Z,32.70
2023-03-21T07:57:08.541Z,32.49
2023-03-21T07:59:38.817Z,32.12
2023-03-21T08:02:07.370Z,31.91
2023-03-21T08:04:35.685Z,31.77
2023-03-21T08:07:04.650Z,31.90
2023-03-21T08:09:35.331Z,32.43
2023-03-21T08:12:11.283Z,32.81
2023-03-21T08:14:40.731Z,32.94
2023-03-21T08:17:09.670Z,32.57
2023-03-21T08:19:38.639Z,32.59
2023-03-21T08:22:07.094Z,33.05
2023-03-21T08:24:35.746Z,32.99
2023-03-21T08:27:12.311Z,33.22
2023-03-21T08:29:42.386Z,33.33
2023-03-21T08:32:12.681Z,33.54
2023-03-21T08:34:43.032Z,33.40
2023-03-21T08:37:13.813Z,33.05
2023-03-21T08:39:41.873Z,32.89
2023-03-21T08:42:11.680Z,33.24
2023-03-21T08:44:41.556Z,33.45
2023-03-21T08:47:09.702Z,33.83
2023-03-21T08:49:38.503Z,33.72
2023-03-21T08:52:07.024Z,34.06
2023-03-21T08:54:36.627Z,34.68
2023-03-21T08:57:04.668Z,35.25
2023-03-21T08:59:32.953Z,35.67
2023-03-21T09:02:01.006Z,35.46
2023-03-21T09:04:31.174Z,34.65
2023-03-21T09:07:01.700Z,33.99
2023-03-21T09:09:29.982Z,33.89
2023-03-21T09:12:00.513Z,33.98
2023-03-21T09:14:29.371Z,34.13
2023-03-21T09:16:57.753Z,34.12
2023-03-21T09:19:28.690Z,34.18
2023-03-21T09:21:57.716Z,34.12
2023-03-21T09:24:26.642Z,34.34
2023-03-21T09:26:56.160Z,33.73
2023-03-21T09:29:25.183Z,33.70
2023-03-21T09:31:55.180Z,34.21
2023-03-21T09:34:23.516Z,34.13
2023-03-21T09:36:57.393Z,33.86
2023-03-21T09:39:28.562Z,33.51
2023-03-21T09:42:33.280Z,34.15
2023-03-21T09:45:13.673Z,35.29
2023-03-21T09:47:53.232Z,35.93
2023-03-21T09:50:28.015Z,35.95
2023-03-21T09:53:21.178Z,35.41
2023-03-21T09:55:49.462Z,34.62
2023-03-21T09:58:31.326Z,34.30
2023-03-21T10:01:10.531Z,34.40
2023-03-21T10:03:38.845Z,33.60
2023-03-21T10:06:12.436Z,33.21
2023-03-21T10:08:41.953Z,32.89
2023-03-21T10:11:23.945Z,32.69
2023-03-21T10:14:21.486Z,32.83
2023-03-21T10:16:52.768Z,33.07
2023-03-21T10:19:20.975Z,32.82
2023-03-21T10:22:06.151Z,32.65
2023-03-21T10:24:34.714Z,32.56
2023-03-21T10:27:03.564Z,32.05
2023-03-21T10:29:37.784Z,32.12
2023-03-21T10:32:08.520Z,32.30
2023-03-21T10:34:39.176Z,33.01
2023-03-21T10:37:07.656Z,33.10
2023-03-21T10:39:40.344Z,33.02
2023-03-21T10:42:26.042Z,33.57
2023-03-21T10:44:56.577Z,33.50
2023-03-21T10:47:30.924Z,33.43
2023-03-21T10:50:12.688Z,33.34
2023-03-21T10:52:49.750Z,33.23
2023-03-21T10:55:23.351Z,33.95
2023-03-21T10:58:08.643Z,34.38
2023-03-21T11:00:41.552Z,34.63
2023-03-21T11:03:25.618Z,34.91
2023-03-21T11:05:56.300Z,34.63
2023-03-21T11:08:24.816Z,34.62
2023-03-21T11:11:05.860Z,34.38
2023-03-21T11:13:40.915Z,34.01
2023-03-21T11:16:13.264Z,33.44
2023-03-21T11:18:43.796Z,33.59
2023-03-21T11:21:13.652Z,33.17
2023-03-21T11:23:49.634Z,33.58
2023-03-21T11:26:29.899Z,33.20
2023-03-21T11:28:58.154Z,33.39
2023-03-21T11:31:39.001Z,33.20
2023-03-21T11:34:08.376Z,33.16
2023-03-21T11:36:40.991Z,33.46
2023-03-21T11:39:09.190Z,33.80
2023-03-21T11:41:37.536Z,34.44
2023-03-21T11:44:23.832Z,34.33
2023-03-21T11:46:53.289Z,33.58
2023-03-21T11:49:23.795Z,33.25
2023-03-21T11:52:17.950Z,33.33
2023-03-21T11:54:58.374Z,33.04
2023-03-21T11:57:38.827Z,32.96
2023-03-21T12:00:26.303Z,32.68
2023-03-21T12:03:28.907Z,32.25
2023-03-21T12:06:01.665Z,32.52
2023-03-21T12:08:45.211Z,33.00
2023-03-21T12:11:19.642Z,32.85
2023-03-21T12:14:14.535Z,32.22
2023-03-21T12:17:04.818Z,32.31
2023-03-21T12:19:54.286Z,32.37
2023-03-21T12:22:43.055Z,32.49
2023-03-21T12:25:12.857Z,32.61
2023-03-21T12:28:10.324Z,32.96
2023-03-21T12:30:45.073Z,33.52
2023-03-21T12:33:32.610Z,34.05
2023-03-21T12:36:07.043Z,34.25
2023-03-21T12:38:46.451Z,34.83
2023-03-21T12:41:43.777Z,35.32
2023-03-21T12:44:16.345Z,35.87
2023-03-21T12:47:03.120Z,35.88
2023-03-21T12:49:46.473Z,35.63
2023-03-21T12:52:29.624Z,36.29
2023-03-21T12:55:09.504Z,36.52
2023-03-21T12:58:03.366Z,36.59
2023-03-21T13:00:38.864Z,36.49
2023-03-21T13:03:27.666Z,36.49
2023-03-21T13:06:13.576Z,36.39
2023-03-21T13:08:58.910Z,36.21
2023-03-21T13:11:30.811Z,36.07
2023-03-21T13:14:13.815Z,35.72
2023-03-21T13:16:52.560Z,35.81
2023-03-21T13:19:23.237Z,36.21
2023-03-21T13:21:56.997Z,35.96
2023-03-21T13:24:40.342Z,35.47
2023-03-21T13:27:34.288Z,35.68
2023-03-21T13:30:08.798Z,35.96
2023-03-21T13:32:42.070Z,36.10
2023-03-21T13:35:16.227Z,36.28
2023-03-21T13:37:59.482Z,36.24
2023-03-21T13:40:49.857Z,36.37
2023-03-21T13:43:42.973Z,36.21
2023-03-21T13:46:13.502Z,36.17
2023-03-21T13:49:01.377Z,35.87
2023-03-21T13:51:37.123Z,35.53
2023-03-21T13:54:07.151Z,35.52
2023-03-21T13:56:44.441Z,35.18
2023-03-21T13:59:13.849Z,35.47
2023-03-21T14:01:42.815Z,35.94
2023-03-21T14:04:19.428Z,36.20
2023-03-21T14:06:56.192Z,36.54
2023-03-21T14:09:36.725Z,36.43
2023-03-21T14:12:08.203Z,36.54
2023-03-21T14:14:49.043Z,36.51
2023-03-21T14:17:25.233Z,36.97
2023-03-21T14:19:54.641Z,37.60
2023-03-21T14:22:22.955Z,37.96
2023-03-21T14:24:57.620Z,38.27
2023-03-21T14:27:33.962Z,38.50
2023-03-21T14:30:04.465Z,38.83
2023-03-21T14:32:33.730Z,39.34
2023-03-21T14:35:01.844Z,39.97
2023-03-21T14:37:31.706Z,40.58
2023-03-21T14:40:01.501Z,41.14
2023-03-21T14:42:36.718Z,41.90
2023-03-21T14:45:32.804Z,42.27
2023-03-21T14:48:22.154Z,43.01
2023-03-21T14:50:54.850Z,43.99
2023-03-21T14:53:29.387Z,45.20
2023-03-21T14:56:02.926Z,46.45
2023-03-21T14:58:34.329Z,47.34
2023-03-21T15:01:04.233Z,48.16
2023-03-21T15:03:34.434Z,48.93
2023-03-21T15:06:05.812Z,49.93
2023-03-21T15:08:34.803Z,50.67
2023-03-21T15:11:07.540Z,51.72
2023-03-21T15:13:52.573Z,52.63
2023-03-21T15:16:21.301Z,53.66
2023-03-21T15:18:49.502Z,54.29
2023-03-21T15:21:22.313Z,55.89
2023-03-21T15:23:53.852Z,57.62
2023-03-21T15:26:24.457Z,58.77
2023-03-21T15:28:56.893Z,59.71
2023-03-21T15:31:29.973Z,60.69
2023-03-21T15:33:58.326Z,61.60
2023-03-21T15:36:28.637Z,62.43
2023-03-21T15:39:01.587Z,63.10
2023-03-21T15:41:31.164Z,63.51
2023-03-21T15:44:04.392Z,63.96
2023-03-21T15:46:42.152Z,64.18
2023-03-21T15:49:11.078Z,64.05
2023-03-21T15:51:41.594Z,64.12
2023-03-21T15:54:16.254Z,63.71
2023-03-21T15:56:46.190Z,63.01
2023-03-21T15:59:18.170Z,62.39
2023-03-21T16:01:47.442Z,62.12
2023-03-21T16:04:21.193Z,61.77
2023-03-21T16:06:57.927Z,61.18
2023-03-21T16:09:26.138Z,60.09
2023-03-21T16:11:57.390Z,60.40
2023-03-21T16:14:30.573Z,62.06
2023-03-21T16:16:59.183Z,62.13
2023-03-21T16:19:29.873Z,62.51
2023-03-21T16:21:58.087Z,63.28
2023-03-21T16:24:26.361Z,63.52
2023-03-21T16:26:56.743Z,63.91
2023-03-21T16:29:24.937Z,64.72
2023-03-21T16:31:53.477Z,65.11
2023-03-21T16:34:21.939Z,65.08
2023-03-21T16:36:50.195Z,64.84
2023-03-21T16:39:20.711Z,64.10
2023-03-21T16:41:51.053Z,63.66
2023-03-21T16:44:19.684Z,63.39
2023-03-21T16:46:51.943Z,62.62
2023-03-21T16:49:23.869Z,62.45
2023-03-21T16:51:52.631Z,62.39
2023-03-21T16:54:20.886Z,62.31
2023-03-21T16:56:54.137Z,63.37
2023-03-21T16:59:22.276Z,64.65
2023-03-21T17:01:51.855Z,65.33
2023-03-21T17:04:19.969Z,65.70
2023-03-21T17:06:51.726Z,65.31
2023-03-21T17:09:22.495Z,64.80
2023-03-21T17:11:52.992Z,64.32
2023-03-21T17:14:23.097Z,63.89
2023-03-21T17:16:51.572Z,63.76
2023-03-21T17:19:29.112Z,63.62
2023-03-21T17:21:57.656Z,63.38
2023-03-21T17:24:29.898Z,63.24
2023-03-21T17:26:59.669Z,63.11
2023-03-21T17:29:29.508Z,62.96
2023-03-21T17:32:00.024Z,62.70
2023-03-21T17:34:30.824Z,62.45
2023-03-21T17:37:04.722Z,62.27
2023-03-21T17:39:33.490Z,61.99
2023-03-21T17:42:01.628Z,61.90
2023-03-21T17:44:29.742Z,62.22
2023-03-21T17:46:57.792Z,62.38
2023-03-21T17:49:28.272Z,62.63
2023-03-21T17:51:56.509Z,62.82
2023-03-21T17:54:24.730Z,62.96
2023-03-21T17:56:52.801Z,63.02
2023-03-21T17:59:21.018Z,63.32
2023-03-21T18:01:56.245Z,63.44
2023-03-21T18:04:24.529Z,63.71
2023-03-21T18:06:54.306Z,63.86
2023-03-21T18:09:26.650Z,63.96
2023-03-21T18:11:55.325Z,64.02
2023-03-21T18:14:27.886Z,63.95
2023-03-21T18:16:59.289Z,64.26
2023-03-21T18:19:27.651Z,64.45
2023-03-21T18:21:56.188Z,64.61
2023-03-21T18:24:24.956Z,64.95
2023-03-21T18:26:53.283Z,65.15
2023-03-21T18:32:09.632Z,65.54
2023-03-21T18:34:38.924Z,65.47
2023-03-21T18:37:08.565Z,65.56
2023-03-21T18:39:37.162Z,65.59
2023-03-21T18:42:06.478Z,65.62
2023-03-21T18:44:39.008Z,65.65
2023-03-21T18:47:07.799Z,65.78
2023-03-21T18:52:29.342Z,65.86
2023-03-21T18:54:59.385Z,66.06
2023-03-21T18:57:37.326Z,66.04
2023-03-21T19:00:12.960Z,66.06
2023-03-21T19:02:47.540Z,66.08
2023-03-21T19:05:17.603Z,65.99
2023-03-21T19:07:48.012Z,66.00
2023-03-21T19:10:21.026Z,65.86
2023-03-21T19:12:53.064Z,65.93
2023-03-21T19:15:25.214Z,65.98
2023-03-21T19:18:30.748Z,65.90
2023-03-21T19:20:47.574Z,65.79
2023-03-21T19:23:17.351Z,65.77
2023-03-21T19:25:46.173Z,65.74
2023-03-21T19:28:15.339Z,65.65
2023-03-21T19:30:49.890Z,65.65
2023-03-21T19:33:24.659Z,65.65
2023-03-21T19:36:10.926Z,65.80
2023-03-21T19:38:41.871Z,65.70
2023-03-21T19:41:10.103Z,65.77
2023-03-21T19:43:40.152Z,65.82
2023-03-21T19:46:14.811Z,68.18
2023-03-21T19:48:44.064Z,69.85
2023-03-21T19:51:30.088Z,70.39
2023-03-21T19:53:59.438Z,70.75
2023-03-21T19:56:27.987Z,70.95
2023-03-21T19:58:56.832Z,71.19
2023-03-21T20:01:25.312Z,71.17
2023-03-21T20:03:56.915Z,71.53
2023-03-21T20:06:25.033Z,71.81
2023-03-21T20:11:47.423Z,71.94
2023-03-21T20:14:17.177Z,71.91
2023-03-21T20:16:45.659Z,72.06
2023-03-21T20:19:18.441Z,72.25
2023-03-21T20:21:54.716Z,72.41
2023-03-21T20:24:28.481Z,72.77
2023-03-21T20:26:57.509Z,72.93
2023-03-21T20:32:14.360Z,73.11
2023-03-21T20:34:44.620Z,73.30
2023-03-21T20:37:18.314Z,73.15
2023-03-21T20:39:49.255Z,72.96
2023-03-21T20:42:18.325Z,72.82
2023-03-21T20:44:58.459Z,72.83
2023-03-21T20:47:28.166Z,72.53
2023-03-21T20:50:02.361Z,72.43
2023-03-21T20:55:18.902Z,72.19
2023-03-21T20:57:48.725Z,72.36
2023-03-21T21:00:17.804Z,72.53
2023-03-21T21:02:46.588Z,72.58
2023-03-21T21:05:25.810Z,72.60
2023-03-21T21:07:59.456Z,73.34
2023-03-21T21:10:27.761Z,73.77
2023-03-21T21:12:57.105Z,74.12
2023-03-21T21:15:27.298Z,72.29
2023-03-21T21:18:07.835Z,70.43
2023-03-21T21:20:39.655Z,70.11
2023-03-21T21:23:09.534Z,69.70
2023-03-21T21:25:40.078Z,69.25
2023-03-21T21:28:09.727Z,69.35
2023-03-21T21:30:43.386Z,69.24
2023-03-21T21:33:14.558Z,69.02
2023-03-21T21:35:47.696Z,69.14
2023-03-21T21:38:17.796Z,68.94
2023-03-21T21:40:46.728Z,68.66
2023-03-21T21:43:21.681Z,68.66
2023-03-21T21:45:51.098Z,68.56
2023-03-21T21:48:21.019Z,68.61
2023-03-21T21:50:52.049Z,68.29
2023-03-21T21:53:21.637Z,68.20
2023-03-21T21:55:51.153Z,68.07
2023-03-21T21:58:21.344Z,68.17
2023-03-21T22:00:50.196Z,67.93
2023-03-21T22:03:22.391Z,68.07
2023-03-21T22:05:51.609Z,67.99
2023-03-21T22:08:19.818Z,67.81
2023-03-21T22:10:49.018Z,67.81
2023-03-21T22:13:17.021Z,68.02
2023-03-21T22:15:46.268Z,68.96
2023-03-21T22:18:16.189Z,69.71
2023-03-21T22:20:44.588Z,70.21
2023-03-21T22:23:14.291Z,70.54
2023-03-21T22:25:43.859Z,70.66
2023-03-21T22:28:11.762Z,70.74
2023-03-21T22:30:42.468Z,70.53
2023-03-21T22:33:11.228Z,70.46
2023-03-21T22:35:42.362Z,70.23
2023-03-21T22:38:14.724Z,70.14
2023-03-21T22:40:42.783Z,70.01
2023-03-21T22:43:14.560Z,69.68
2023-03-21T22:45:43.237Z,69.90
2023-03-21T22:48:14.307Z,69.92
2023-03-21T22:50:44.853Z,69.97
2023-03-21T22:53:12.956Z,69.83
2023-03-21T22:55:40.973Z,72.45
2023-03-21T22:58:09.103Z,73.35
2023-03-21T23:00:37.446Z,73.79
2023-03-21T23:03:06.172Z,74.02
2023-03-21T23:05:40.072Z,74.13
2023-03-21T23:08:08.087Z,74.39
2023-03-21T23:10:43.897Z,74.61
2023-03-21T23:13:12.158Z,74.47
2023-03-21T23:15:44.024Z,71.54
2023-03-21T23:18:12.842Z,70.69
2023-03-21T23:20:41.397Z,70.48
2023-03-21T23:23:12.267Z,70.42
2023-03-21T23:25:42.512Z,70.36
2023-03-21T23:28:13.280Z,70.29
2023-03-21T23:30:41.723Z,69.91
2023-03-21T23:33:10.073Z,69.56
2023-03-21T23:35:38.787Z,69.77
2023-03-21T23:38:10.720Z,69.84
2023-03-21T23:40:42.026Z,69.92
2023-03-21T23:43:10.513Z,70.00
2023-03-21T23:45:38.553Z,69.78
2023-03-21T23:48:07.635Z,69.58
2023-03-21T23:50:38.992Z,69.37
2023-03-21T23:53:14.822Z,69.69
2023-03-21T23:55:44.851Z,69.89
2023-03-21T23:58:13.046Z,70.14
